createdAt,value
2022-09-09T00:02:56.788Z,100.00
2022-09-09T00:08:50.016Z,100.00
2022-09-09T00:15:25.693Z,100.00
2022-09-09T00:21:23.167Z,100.00
2022-09-09T00:27:51.108Z,100.00
2022-09-09T00:33:59.195Z,100.00
2022-09-09T00:40:12.524Z,100.00
2022-09-09T00:46:48.172Z,100.00
2022-09-09T00:53:14.063Z,100.00
2022-09-09T00:59:51.235Z,100.00
2022-09-09T01:06:58.240Z,100.00
2022-09-09T01:13:13.424Z,100.00
2022-09-09T01:19:18.249Z,100.00
2022-09-09T01:26:07.848Z,100.00
2022-09-09T01:32:44.856Z,100.00
2022-09-09T01:39:13.804Z,100.00
2022-09-09T01:45:26.629Z,100.00
2022-09-09T01:51:45.414Z,100.00
2022-09-09T01:58:20.624Z,100.00
2022-09-09T02:04:29.148Z,100.00
2022-09-09T02:10:52.428Z,100.00
2022-09-09T02:17:07.307Z,100.00
2022-09-09T02:23:04.167Z,100.00
2022-09-09T02:29:59.687Z,100.00
2022-09-09T02:36:33.847Z,100.00
2022-09-09T02:41:48.691Z,100.00
2022-09-09T02:48:37.018Z,100.00
2022-09-09T02:54:45.180Z,100.00
2022-09-09T03:01:21.073Z,100.00
2022-09-09T03:07:15.889Z,100.00
2022-09-09T03:13:54.232Z,100.00
2022-09-09T03:20:23.540Z,100.00
2022-09-09T03:26:16.168Z,100.00
2022-09-09T03:32:01.216Z,100.00
2022-09-09T03:38:13.681Z,100.00
2022-09-09T03:44:53.943Z,100.00
2022-09-09T03:51:12.801Z,100.00
2022-09-09T03:57:47.779Z,100.00
2022-09-09T04:04:12.716Z,100.00
2022-09-09T04:09:53.140Z,100.00
2022-09-09T04:15:37.574Z,100.00
2022-09-09T04:21:25.115Z,100.00
2022-09-09T04:27:36.291Z,100.00
2022-09-09T04:33:35.073Z,100.00
2022-09-09T04:39:41.140Z,100.00
2022-09-09T04:45:53.314Z,100.00
2022-09-09T04:51:58.324Z,100.00
2022-09-09T04:57:44.436Z,100.00
2022-09-09T05:04:01.027Z,100.00
2022-09-09T05:10:01.115Z,100.00
2022-09-09T05:15:52.122Z,100.00
2022-09-09T05:21:55.685Z,100.00
2022-09-09T05:28:01.791Z,100.00
2022-09-09T05:34:00.322Z,100.00
2022-09-09T05:40:18.319Z,100.00
2022-09-09T05:45:51.594Z,100.00
2022-09-09T05:51:30.351Z,100.00
2022-09-09T05:57:02.630Z,100.00
2022-09-09T06:02:38.189Z,100.00
2022-09-09T06:08:45.196Z,100.00
2022-09-09T06:14:31.581Z,100.00
2022-09-09T06:20:10.327Z,100.00
2022-09-09T06:25:49.963Z,100.00
2022-09-09T06:31:50.823Z,100.00
2022-09-09T06:37:49.951Z,100.00
2022-09-09T06:43:55.696Z,100.00
2022-09-09T06:50:18.494Z,100.00
2022-09-09T06:56:24.577Z,100.00
2022-09-09T07:02:56.810Z,100.00
2022-09-09T07:09:07.394Z,100.00
2022-09-09T07:14:53.544Z,100.00
2022-09-09T07:21:13.117Z,100.00
2022-09-09T07:27:07.749Z,100.00
2022-09-09T07:32:48.038Z,100.00
2022-09-09T07:39:05.911Z,100.00
2022-09-09T07:44:58.994Z,100.00
2022-09-09T07:51:17.737Z,100.00
2022-09-09T07:57:19.523Z,100.00
2022-09-09T08:02:51.405Z,100.00
2022-09-09T08:08:01.798Z,100.00
2022-09-09T08:13:41.309Z,100.00
2022-09-09T08:19:31.573Z,100.00
2022-09-09T08:24:43.397Z,100.00
2022-09-09T08:29:57.650Z,100.00
2022-09-09T08:35:21.778Z,100.00
2022-09-09T08:40:39.073Z,100.00
2022-09-09T08:46:09.725Z,100.00
2022-09-09T08:51:40.903Z,100.00
2022-09-09T08:56:57.237Z,100.00
2022-09-09T09:02:35.253Z,98.94
2022-09-09T09:08:44.342Z,97.20
2022-09-09T09:14:45.979Z,96.33
2022-09-09T09:20:13.672Z,94.37
2022-09-09T09:25:32.501Z,93.40
2022-09-09T09:31:18.694Z,92.77
2022-09-09T09:37:09.325Z,92.84
2022-09-09T09:42:24.458Z,92.69
2022-09-09T09:47:49.911Z,92.11
2022-09-09T09:53:40.799Z,90.17
2022-09-09T09:59:38.693Z,88.54
2022-09-09T10:04:44.839Z,89.83
2022-09-09T10:10:16.495Z,89.27
2022-09-09T10:16:05.670Z,86.92
2022-09-09T10:21:45.943Z,85.42
2022-09-09T10:27:46.476Z,84.20
2022-09-09T10:34:31.116Z,82.69
2022-09-09T10:40:12.635Z,83.70
2022-09-09T10:45:54.091Z,82.82
2022-09-09T10:51:27.679Z,80.82
2022-09-09T10:57:33.587Z,79.53
2022-09-09T11:02:51.595Z,80.95
2022-09-09T11:08:13.370Z,79.58
2022-09-09T11:14:25.813Z,77.40
2022-09-09T11:19:47.399Z,77.59
2022-09-09T11:25:35.201Z,76.61
2022-09-09T11:31:29.544Z,76.06
2022-09-09T11:37:33.584Z,72.54
2022-09-09T11:43:25.247Z,72.89
2022-09-09T11:49:01.578Z,71.42
2022-09-09T11:54:50.274Z,70.99
2022-09-09T12:00:10.127Z,70.44
2022-09-09T12:05:49.969Z,70.13
2022-09-09T12:11:33.200Z,69.17
2022-09-09T12:16:42.320Z,67.98
2022-09-09T12:22:23.533Z,67.32
2022-09-09T12:27:38.226Z,68.44
2022-09-09T12:33:07.924Z,68.91
2022-09-09T12:38:31.731Z,68.43
2022-09-09T12:43:44.738Z,66.51
2022-09-09T12:49:00.322Z,66.23
2022-09-09T12:54:54.838Z,66.09
2022-09-09T13:00:36.388Z,65.56
2022-09-09T13:06:08.880Z,65.15
2022-09-09T13:12:00.564Z,65.45
2022-09-09T13:17:30.687Z,66.10
2022-09-09T13:22:56.185Z,65.17
2022-09-09T13:28:26.304Z,65.08
2022-09-09T13:33:58.765Z,64.63
2022-09-09T13:39:24.443Z,62.72
2022-09-09T13:44:53.783Z,62.75
2022-09-09T13:50:21.292Z,64.00
2022-09-09T13:55:34.838Z,62.79
2022-09-09T14:00:59.031Z,61.88
2022-09-09T14:06:19.964Z,59.96
2022-09-09T14:11:47.648Z,61.56
2022-09-09T14:17:07.956Z,61.50
2022-09-09T14:22:45.850Z,61.61
2022-09-09T14:28:54.351Z,60.64
2022-09-09T14:34:56.121Z,58.84
2022-09-09T14:40:17.831Z,59.18
2022-09-09T14:45:49.056Z,58.68
2022-09-09T14:51:20.054Z,57.86
2022-09-09T14:56:27.337Z,59.13
2022-09-09T15:01:39.527Z,59.47
2022-09-09T15:06:51.669Z,59.94
2022-09-09T15:12:21.492Z,59.83
2022-09-09T15:17:29.536Z,61.14
2022-09-09T15:22:37.719Z,62.18
2022-09-09T15:28:03.911Z,63.38
2022-09-09T15:33:18.287Z,62.78
2022-09-09T15:39:05.922Z,62.18
2022-09-09T15:44:46.797Z,62.07
2022-09-09T15:49:52.641Z,62.56
2022-09-09T15:55:01.763Z,63.52
2022-09-09T16:00:06.027Z,64.80
2022-09-09T16:05:08.346Z,65.15
2022-09-09T16:10:19.393Z,65.61
2022-09-09T16:15:34.999Z,65.71
2022-09-09T16:21:14.638Z,66.58
2022-09-09T16:26:46.173Z,67.66
2022-09-09T16:32:12.977Z,68.11
2022-09-09T16:37:26.191Z,68.70
2022-09-09T16:42:44.360Z,69.56
2022-09-09T16:48:37.439Z,70.59
2022-09-09T16:54:35.165Z,71.36
2022-09-09T17:00:11.936Z,71.95
2022-09-09T17:05:35.965Z,72.74
2022-09-09T17:11:00.087Z,73.42
2022-09-09T17:16:42.803Z,74.25
2022-09-09T17:22:16.897Z,75.15
2022-09-09T17:28:05.071Z,75.65
2022-09-09T17:34:00.934Z,76.54
2022-09-09T17:39:52.028Z,77.27
2022-09-09T17:45:54.012Z,78.10
2022-09-09T17:51:30.884Z,78.20
2022-09-09T17:57:34.357Z,78.88
2022-09-09T18:03:05.440Z,79.65
2022-09-09T18:08:10.949Z,79.88
2022-09-09T18:13:32.464Z,78.88
2022-09-09T18:19:14.062Z,79.63
2022-09-09T18:24:27.127Z,80.08
2022-09-09T18:29:35.122Z,80.31
2022-09-09T18:34:40.070Z,80.24
2022-09-09T18:40:02.350Z,80.61
2022-09-09T18:45:38.128Z,80.60
2022-09-09T18:50:55.867Z,80.97
2022-09-09T18:56:43.019Z,81.56
2022-09-09T19:02:26.829Z,82.44
2022-09-09T19:08:03.391Z,83.17
2022-09-09T19:13:24.387Z,83.92
2022-09-09T19:19:17.031Z,84.61
2022-09-09T19:25:10.265Z,85.26
2022-09-09T19:30:30.715Z,85.72
2022-09-09T19:36:08.971Z,86.32
2022-09-09T19:41:20.844Z,86.64
2022-09-09T19:47:06.517Z,87.06
2022-09-09T19:52:41.063Z,87.45
2022-09-09T19:58:16.082Z,88.02
2022-09-09T20:03:21.401Z,88.25
2022-09-09T20:09:01.977Z,88.15
2022-09-09T20:14:21.075Z,88.35
2022-09-09T20:20:09.749Z,88.57
2022-09-09T20:25:48.813Z,88.80
2022-09-09T20:31:22.865Z,89.08
2022-09-09T20:37:31.015Z,89.44
2022-09-09T20:43:01.580Z,89.83
2022-09-09T20:48:09.988Z,90.01
2022-09-09T20:53:35.369Z,90.36
2022-09-09T20:59:11.634Z,90.55
2022-09-09T21:04:50.438Z,90.65
2022-09-09T21:10:20.755Z,90.80
2022-09-09T21:16:03.314Z,91.02
2022-09-09T21:22:07.177Z,91.42
2022-09-09T21:28:05.239Z,91.76
2022-09-09T21:33:46.288Z,91.98
2022-09-09T21:38:59.286Z,92.32
2022-09-09T21:45:02.154Z,92.28
2022-09-09T21:50:10.140Z,92.29
2022-09-09T21:55:29.301Z,92.03
2022-09-09T22:00:35.132Z,91.91
2022-09-09T22:05:59.886Z,92.15
2022-09-09T22:11:31.567Z,92.30
2022-09-09T22:16:49.160Z,92.43
2022-09-09T22:22:00.229Z,92.73
2022-09-09T22:27:16.128Z,93.07
2022-09-09T22:32:18.406Z,93.20
2022-09-09T22:37:28.120Z,93.51
2022-09-09T22:42:41.853Z,93.51
2022-09-09T22:48:28.829Z,93.73
2022-09-09T22:54:06.433Z,93.54
2022-09-09T22:59:39.494Z,93.41
2022-09-09T23:05:43.744Z,93.50
2022-09-09T23:11:09.368Z,93.63
2022-09-09T23:16:48.142Z,93.49
2022-09-09T23:21:52.605Z,93.48
2022-09-09T23:27:27.220Z,93.42
2022-09-09T23:33:21.959Z,93.58
2022-09-09T23:38:55.411Z,93.80
2022-09-09T23:45:06.731Z,94.02
2022-09-09T23:50:44.030Z,94.81
2022-09-09T23:56:32.916Z,95.46
